Addy, Washington
Current Conditions -  °F | °C
As of 1:53 PM on Friday 31 Oct 2014 (Local Time) from KDEW Reporting Station
Light Rain Light Rain  
Wind Chill: 49°   Ceiling: 500
Heat Index: 49°   Visibility: 4mi
Dew Point: 47°   Wind: 3mph
Humidity: 93%   Direction: 270°W
Pressure: 29.76"   Gusts: NA
Location:  48.36°N, 117.84°W
Report Text: KDEW 312053Z AUTO 27003KT 4SM -RA BR OVC005 09/08 A2976 RMK AO2 RAB46 SLP081 P0000 60000 T00940083 51003
Loading
Personal Weather Stations






























Interactive Weather Map
Tropical Storm Tracking
New forecast layout! Learn more

10-Day Weather Forecast

Advertisements
Track Severe Weather on mobile